createdAt,value
2022-12-06T00:00:31.748Z,17.92
2022-12-06T00:03:37.625Z,16.90
2022-12-06T00:06:47.539Z,17.40
2022-12-06T00:09:52.719Z,15.68
2022-12-06T00:12:58.063Z,16.17
2022-12-06T00:16:05.095Z,17.05
2022-12-06T00:19:14.176Z,27.25
2022-12-06T00:22:19.218Z,33.05
2022-12-06T00:25:24.057Z,30.88
2022-12-06T00:28:28.922Z,26.27
2022-12-06T00:31:35.597Z,24.73
2022-12-06T00:34:40.686Z,31.30
2022-12-06T00:37:45.594Z,33.47
2022-12-06T00:40:51.885Z,34.08
2022-12-06T00:43:58.325Z,31.02
2022-12-06T00:47:04.585Z,32.05
2022-12-06T00:50:10.663Z,27.25
2022-12-06T00:53:16.263Z,27.88
2022-12-06T00:56:21.749Z,24.00
2022-12-06T00:59:28.394Z,23.98
2022-12-06T01:02:35.005Z,25.35
2022-12-06T01:05:48.357Z,26.60
2022-12-06T01:08:54.845Z,27.52
2022-12-06T01:11:59.900Z,28.52
2022-12-06T01:15:05.423Z,28.35
2022-12-06T01:18:10.404Z,26.73
2022-12-06T01:21:17.978Z,29.13
2022-12-06T01:24:22.925Z,29.40
2022-12-06T01:27:28.110Z,32.88
2022-12-06T01:30:33.433Z,37.65
2022-12-06T01:33:38.492Z,38.30
2022-12-06T01:36:44.053Z,38.28
2022-12-06T01:39:49.028Z,37.13
2022-12-06T01:42:53.772Z,38.22
2022-12-06T01:46:02.907Z,37.78
2022-12-06T01:49:13.856Z,36.35
2022-12-06T01:52:19.281Z,35.50
2022-12-06T01:55:28.704Z,33.28
2022-12-06T01:58:38.393Z,34.45
2022-12-06T02:01:43.656Z,35.42
2022-12-06T02:04:49.276Z,37.13
2022-12-06T02:07:55.081Z,34.17
2022-12-06T02:11:02.456Z,32.38
2022-12-06T02:14:13.000Z,28.92
2022-12-06T02:17:58.436Z,28.23
2022-12-06T02:21:47.036Z,27.90
2022-12-06T02:25:11.117Z,28.90
2022-12-06T02:28:40.753Z,29.45
2022-12-06T02:32:16.182Z,28.58
2022-12-06T02:35:34.874Z,31.35
2022-12-06T02:38:48.575Z,30.83
2022-12-06T02:42:05.272Z,29.70
2022-12-06T02:45:14.717Z,28.73
2022-12-06T02:48:21.533Z,27.95
2022-12-06T02:51:28.068Z,25.95
2022-12-06T02:54:33.245Z,24.25
2022-12-06T02:57:44.915Z,19.73
2022-12-06T03:01:03.633Z,18.65
2022-12-06T03:04:46.471Z,22.85
2022-12-06T03:07:51.946Z,27.25
2022-12-06T03:11:00.937Z,27.48
2022-12-06T03:14:14.518Z,26.63
2022-12-06T03:17:24.940Z,27.20
2022-12-06T03:21:09.014Z,23.15
2022-12-06T03:24:16.032Z,18.17
2022-12-06T03:27:22.833Z,16.88
2022-12-06T03:30:30.836Z,16.92
2022-12-06T03:33:40.364Z,17.85
2022-12-06T03:36:47.167Z,18.17
2022-12-06T03:40:07.300Z,17.67
2022-12-06T03:43:12.340Z,17.10
2022-12-06T03:46:35.217Z,17.13
2022-12-06T03:49:45.304Z,17.58
2022-12-06T03:52:53.951Z,18.02
2022-12-06T03:55:59.770Z,18.23
2022-12-06T03:59:06.826Z,18.10
2022-12-06T04:02:11.800Z,19.63
2022-12-06T04:05:17.044Z,18.48
2022-12-06T04:08:22.385Z,18.30
2022-12-06T04:11:27.143Z,17.95
2022-12-06T04:14:39.229Z,18.05
2022-12-06T04:18:03.289Z,17.20
2022-12-06T04:21:26.866Z,18.55
2022-12-06T04:24:31.924Z,21.00
2022-12-06T04:27:56.095Z,25.55
2022-12-06T04:31:22.541Z,25.98
2022-12-06T04:34:47.012Z,24.77
2022-12-06T04:38:11.032Z,25.42
2022-12-06T04:41:36.472Z,25.63
2022-12-06T04:44:42.067Z,25.92
2022-12-06T04:47:47.752Z,25.75
2022-12-06T04:50:52.805Z,25.52
2022-12-06T04:53:57.682Z,25.38
2022-12-06T04:57:03.806Z,25.23
2022-12-06T05:00:09.664Z,26.48
2022-12-06T05:03:14.912Z,25.38
2022-12-06T05:06:19.881Z,26.25
2022-12-06T05:09:25.186Z,25.85
2022-12-06T05:12:29.964Z,26.15
2022-12-06T05:15:34.981Z,24.15
2022-12-06T05:18:39.834Z,22.08
2022-12-06T05:21:44.772Z,20.67
2022-12-06T05:24:49.504Z,22.50
2022-12-06T05:27:54.163Z,22.58
2022-12-06T05:30:59.002Z,24.45
2022-12-06T05:34:03.966Z,23.95
2022-12-06T05:37:08.908Z,21.55
2022-12-06T05:40:13.788Z,25.80
2022-12-06T05:43:18.973Z,26.08
2022-12-06T05:46:23.786Z,26.27
2022-12-06T05:49:28.760Z,26.00
2022-12-06T05:52:33.712Z,25.85
2022-12-06T05:55:38.864Z,25.17
2022-12-06T05:58:43.523Z,25.85
2022-12-06T06:01:48.348Z,26.40
2022-12-06T06:04:53.314Z,25.20
2022-12-06T06:07:58.573Z,24.88
2022-12-06T06:11:03.712Z,24.73
2022-12-06T06:14:08.630Z,24.08
2022-12-06T06:17:13.512Z,23.63
2022-12-06T06:20:18.614Z,22.85
2022-12-06T06:23:24.245Z,22.38
2022-12-06T06:26:29.748Z,20.95
2022-12-06T06:29:35.004Z,20.98
2022-12-06T06:32:40.191Z,19.88
2022-12-06T06:35:44.768Z,18.77
2022-12-06T06:38:49.570Z,19.35
2022-12-06T06:41:54.423Z,19.77
2022-12-06T06:44:59.168Z,22.80
2022-12-06T06:48:03.956Z,18.80
2022-12-06T06:51:13.450Z,19.23
2022-12-06T06:54:18.884Z,17.83
2022-12-06T06:57:23.786Z,18.48
2022-12-06T07:00:29.122Z,18.23
2022-12-06T07:03:35.107Z,17.17
2022-12-06T07:06:39.945Z,16.00
2022-12-06T07:09:44.858Z,16.42
2022-12-06T07:12:50.420Z,16.88
2022-12-06T07:15:56.069Z,16.27
2022-12-06T07:19:04.749Z,17.27
2022-12-06T07:22:13.894Z,16.83
2022-12-06T07:25:18.732Z,19.33
2022-12-06T07:28:24.011Z,18.00
2022-12-06T07:31:30.701Z,17.00
2022-12-06T07:34:35.915Z,16.13
2022-12-06T07:37:45.121Z,16.25
2022-12-06T07:41:04.426Z,16.08
2022-12-06T07:44:32.499Z,15.45
2022-12-06T07:47:43.698Z,15.23
2022-12-06T07:50:48.435Z,15.35
2022-12-06T07:53:53.611Z,14.95
2022-12-06T07:56:58.702Z,15.57
2022-12-06T08:00:07.499Z,15.27
2022-12-06T08:03:17.677Z,16.67
2022-12-06T08:06:23.528Z,20.63
2022-12-06T08:09:28.646Z,24.63
2022-12-06T08:12:33.556Z,22.35
2022-12-06T08:15:41.594Z,21.20
2022-12-06T08:18:46.331Z,20.52
2022-12-06T08:21:51.635Z,19.25
2022-12-06T08:24:56.339Z,17.85
2022-12-06T08:28:01.305Z,17.83
2022-12-06T08:31:16.861Z,19.02
2022-12-06T08:34:21.675Z,18.67
2022-12-06T08:37:26.518Z,17.98
2022-12-06T08:40:31.564Z,18.17
2022-12-06T08:43:36.376Z,16.45
2022-12-06T08:46:41.244Z,17.33
2022-12-06T08:49:46.396Z,18.55
2022-12-06T08:52:51.041Z,19.58
2022-12-06T08:56:02.099Z,22.05
2022-12-06T08:59:07.351Z,22.45
2022-12-06T09:02:13.011Z,23.58
2022-12-06T09:05:17.891Z,21.33
2022-12-06T09:08:22.900Z,16.98
2022-12-06T09:11:28.040Z,16.55
2022-12-06T09:14:32.982Z,15.85
2022-12-06T09:17:37.879Z,15.63
2022-12-06T09:20:42.938Z,13.65
2022-12-06T09:23:48.326Z,14.57
2022-12-06T09:26:53.610Z,12.13
2022-12-06T09:29:59.142Z,12.23
2022-12-06T09:33:04.530Z,17.52
2022-12-06T09:36:16.630Z,20.70
2022-12-06T09:39:35.486Z,30.27
2022-12-06T09:43:04.870Z,25.15
2022-12-06T09:46:40.933Z,24.65
2022-12-06T09:50:16.943Z,22.25
2022-12-06T09:53:37.772Z,22.08
2022-12-06T09:57:12.837Z,25.23
2022-12-06T10:00:23.107Z,21.95
2022-12-06T10:04:04.726Z,20.90
2022-12-06T10:07:25.228Z,19.55
2022-12-06T10:10:52.072Z,17.73
2022-12-06T10:14:09.724Z,13.15
2022-12-06T10:17:41.715Z,12.80
2022-12-06T10:21:01.533Z,9.75
2022-12-06T10:24:33.659Z,9.38
2022-12-06T10:27:40.785Z,8.82
2022-12-06T10:30:54.478Z,8.40
2022-12-06T10:34:11.743Z,9.68
2022-12-06T10:37:41.258Z,8.77
2022-12-06T10:41:16.298Z,6.78
2022-12-06T10:44:44.714Z,6.63
2022-12-06T10:47:51.081Z,5.80
2022-12-06T10:51:04.354Z,4.65
2022-12-06T10:54:23.220Z,4.40
2022-12-06T10:58:08.369Z,29.33
2022-12-06T11:01:22.316Z,48.17
2022-12-06T11:04:35.233Z,47.33
2022-12-06T11:07:44.490Z,47.75
2022-12-06T11:10:50.727Z,22.77
2022-12-06T11:14:21.779Z,15.70
2022-12-06T11:17:29.954Z,34.75
2022-12-06T11:21:46.379Z,15.30
2022-12-06T11:25:14.843Z,12.13
2022-12-06T11:28:45.242Z,25.98
2022-12-06T11:31:57.709Z,30.77
2022-12-06T11:35:02.749Z,30.73
2022-12-06T11:38:07.654Z,26.25
2022-12-06T11:41:31.143Z,25.13
2022-12-06T11:44:49.277Z,25.40
2022-12-06T11:47:57.007Z,40.15
2022-12-06T11:51:02.135Z,18.77
2022-12-06T11:54:28.259Z,20.70
2022-12-06T11:57:38.922Z,20.38
2022-12-06T12:00:59.916Z,39.63
2022-12-06T12:04:39.530Z,22.52
2022-12-06T12:07:58.859Z,17.88
2022-12-06T12:11:04.483Z,21.08
2022-12-06T12:14:25.398Z,20.85
2022-12-06T12:17:31.464Z,22.17
2022-12-06T12:20:45.410Z,19.60
2022-12-06T12:23:50.246Z,19.00
2022-12-06T12:26:55.046Z,19.77
2022-12-06T12:30:19.582Z,20.08
2022-12-06T12:33:28.915Z,21.30
2022-12-06T12:36:33.796Z,21.10
2022-12-06T12:39:52.579Z,19.98
2022-12-06T12:43:05.399Z,21.77
2022-12-06T12:46:10.372Z,22.85
2022-12-06T12:49:35.953Z,22.77
2022-12-06T12:52:42.430Z,24.45
2022-12-06T12:55:47.660Z,24.33
2022-12-06T12:58:55.248Z,26.15
2022-12-06T13:02:27.425Z,32.60
2022-12-06T13:05:45.017Z,19.15
2022-12-06T13:08:52.273Z,15.35
2022-12-06T13:12:19.277Z,14.32
2022-12-06T13:15:39.547Z,18.75
2022-12-06T13:18:52.427Z,16.63
2022-12-06T13:21:57.826Z,20.25
2022-12-06T13:25:07.366Z,26.10
2022-12-06T13:28:19.378Z,13.30
2022-12-06T13:31:29.271Z,12.93
2022-12-06T13:34:49.936Z,38.85
2022-12-06T13:38:22.715Z,19.48
2022-12-06T13:41:52.824Z,13.63
2022-12-06T13:44:59.771Z,13.85
2022-12-06T13:48:24.903Z,15.20
2022-12-06T13:51:34.406Z,13.88
2022-12-06T13:54:39.373Z,15.60
2022-12-06T13:57:44.280Z,14.35
2022-12-06T14:00:50.221Z,11.73
2022-12-06T14:03:56.566Z,8.10
2022-12-06T14:10:14.458Z,21.38
2022-12-06T14:13:21.171Z,12.80
2022-12-06T14:16:46.458Z,13.25
2022-12-06T14:19:51.721Z,20.55
2022-12-06T14:22:57.191Z,21.38
2022-12-06T14:26:19.512Z,16.30
2022-12-06T14:29:25.225Z,18.30
2022-12-06T14:32:42.469Z,50.40
2022-12-06T14:35:52.563Z,27.67
2022-12-06T14:39:16.207Z,7.60
2022-12-06T14:42:40.854Z,6.97
2022-12-06T14:45:46.716Z,5.78
2022-12-06T14:49:10.156Z,6.60
2022-12-06T14:52:30.496Z,5.93
2022-12-06T14:55:59.781Z,6.43
2022-12-06T14:59:11.097Z,6.28
2022-12-06T15:02:28.734Z,8.00
2022-12-06T15:05:41.653Z,7.15
2022-12-06T15:08:55.150Z,6.35
2022-12-06T15:12:41.683Z,6.07
2022-12-06T15:15:47.740Z,6.60
2022-12-06T15:19:00.346Z,7.40
2022-12-06T15:22:13.276Z,7.50
2022-12-06T15:25:18.381Z,6.13
2022-12-06T15:28:23.278Z,7.35
2022-12-06T15:31:29.033Z,7.13
2022-12-06T15:34:37.809Z,6.30
2022-12-06T15:37:47.407Z,8.05
2022-12-06T15:40:57.966Z,6.88
2022-12-06T15:44:03.035Z,9.07
2022-12-06T15:47:11.150Z,11.50
2022-12-06T15:50:15.895Z,8.10
2022-12-06T15:53:22.981Z,6.93
2022-12-06T15:56:30.015Z,7.38
2022-12-06T15:59:35.013Z,8.38
2022-12-06T16:02:39.880Z,9.20
2022-12-06T16:05:45.171Z,8.60
2022-12-06T16:08:50.371Z,8.35
2022-12-06T16:11:56.455Z,8.15
2022-12-06T16:15:01.297Z,7.85
2022-12-06T16:18:06.788Z,7.60
2022-12-06T16:21:27.571Z,10.63
2022-12-06T16:24:33.904Z,13.70
2022-12-06T16:27:39.049Z,14.40
2022-12-06T16:30:44.093Z,13.52
2022-12-06T16:33:48.751Z,11.68
2022-12-06T16:37:04.710Z,11.70
2022-12-06T16:40:23.352Z,9.20
2022-12-06T16:43:28.576Z,9.05
2022-12-06T16:46:36.419Z,9.70
2022-12-06T16:49:46.370Z,11.20
2022-12-06T16:52:52.487Z,12.13
2022-12-06T16:55:57.337Z,11.95
2022-12-06T16:59:01.994Z,9.95
2022-12-06T17:02:29.512Z,9.15
2022-12-06T17:05:34.545Z,10.15
2022-12-06T17:08:39.328Z,7.53
2022-12-06T17:12:02.817Z,8.23
2022-12-06T17:15:09.079Z,10.63
2022-12-06T17:18:13.804Z,11.50
2022-12-06T17:21:19.038Z,10.48
2022-12-06T17:24:26.330Z,10.65
2022-12-06T17:27:31.141Z,13.25
2022-12-06T17:30:35.833Z,13.48
2022-12-06T17:33:40.579Z,15.65
2022-12-06T17:36:45.573Z,15.50
2022-12-06T17:39:50.653Z,16.58
2022-12-06T17:43:01.479Z,16.33
2022-12-06T17:46:09.543Z,19.20
2022-12-06T17:49:18.274Z,17.08
2022-12-06T17:52:23.315Z,18.58
2022-12-06T17:55:28.487Z,17.77
2022-12-06T17:58:33.486Z,16.90
2022-12-06T18:02:12.968Z,16.17
2022-12-06T18:05:05.017Z,13.15
2022-12-06T18:08:10.380Z,14.77
2022-12-06T18:11:16.755Z,12.35
2022-12-06T18:14:21.735Z,11.82
2022-12-06T18:17:26.602Z,12.30
2022-12-06T18:20:31.480Z,11.10
2022-12-06T18:23:40.939Z,10.45
2022-12-06T18:26:53.445Z,9.20
2022-12-06T18:29:58.286Z,9.68
2022-12-06T18:33:06.114Z,9.27
2022-12-06T18:36:11.087Z,9.45
2022-12-06T18:39:24.155Z,8.40
2022-12-06T18:42:29.354Z,7.28
2022-12-06T18:45:34.196Z,6.65
2022-12-06T18:48:43.566Z,6.82
2022-12-06T18:51:48.780Z,6.03
2022-12-06T18:54:53.379Z,5.70
2022-12-06T18:57:58.442Z,6.45
2022-12-06T19:01:18.671Z,6.40
2022-12-06T19:04:24.049Z,6.75
2022-12-06T19:07:28.767Z,5.80
2022-12-06T19:10:34.072Z,6.30
2022-12-06T19:13:39.154Z,6.82
2022-12-06T19:16:48.659Z,7.03
2022-12-06T19:19:53.698Z,9.15
2022-12-06T19:22:58.341Z,8.55
2022-12-06T19:26:04.088Z,8.13
2022-12-06T19:29:09.214Z,7.85
2022-12-06T19:32:13.985Z,6.80
2022-12-06T19:35:18.871Z,6.20
2022-12-06T19:38:24.894Z,7.07
2022-12-06T19:41:30.676Z,6.20
2022-12-06T19:44:35.379Z,5.90
2022-12-06T19:47:40.345Z,5.78
2022-12-06T19:50:45.377Z,5.50
2022-12-06T19:53:50.374Z,5.90
2022-12-06T19:56:57.161Z,5.57
2022-12-06T20:00:02.425Z,5.10
2022-12-06T20:03:17.312Z,5.72
2022-12-06T20:06:26.124Z,5.15
2022-12-06T20:09:33.207Z,4.78
2022-12-06T20:12:38.463Z,4.20
2022-12-06T20:15:43.811Z,3.95
2022-12-06T20:18:48.778Z,4.05
2022-12-06T20:21:53.600Z,3.95
2022-12-06T20:24:58.119Z,3.65
2022-12-06T20:28:03.187Z,3.72
2022-12-06T20:31:13.622Z,3.92
2022-12-06T20:34:19.256Z,3.47
2022-12-06T20:37:24.379Z,3.28
2022-12-06T20:40:31.821Z,2.90
2022-12-06T20:43:40.719Z,2.70
2022-12-06T20:46:48.201Z,3.03
2022-12-06T20:49:53.659Z,3.22
2022-12-06T20:52:59.030Z,3.08
2022-12-06T20:56:07.428Z,3.20
2022-12-06T20:59:12.636Z,2.60
2022-12-06T21:02:17.388Z,3.40
2022-12-06T21:05:22.079Z,3.75
2022-12-06T21:08:27.167Z,2.40
2022-12-06T21:11:33.690Z,2.88
2022-12-06T21:14:38.670Z,2.35
2022-12-06T21:17:43.622Z,2.30
2022-12-06T21:20:48.719Z,2.47
2022-12-06T21:23:53.803Z,2.63
2022-12-06T21:26:58.755Z,2.60
2022-12-06T21:30:04.542Z,2.90
2022-12-06T21:33:09.807Z,2.38
2022-12-06T21:36:14.717Z,2.90
2022-12-06T21:39:19.726Z,3.08
2022-12-06T21:42:24.766Z,3.35
2022-12-06T21:45:29.613Z,3.08
2022-12-06T21:48:35.079Z,3.20
2022-12-06T21:51:39.943Z,3.00
2022-12-06T21:54:44.946Z,3.45
2022-12-06T21:57:49.899Z,3.17
2022-12-06T22:00:54.864Z,3.25
2022-12-06T22:04:03.075Z,2.75
2022-12-06T22:07:08.211Z,2.80
2022-12-06T22:10:13.049Z,2.70
2022-12-06T22:13:18.477Z,2.90
2022-12-06T22:16:23.605Z,2.70
2022-12-06T22:19:28.676Z,2.78
2022-12-06T22:22:33.770Z,2.72
2022-12-06T22:25:39.667Z,2.75
2022-12-06T22:28:44.875Z,2.53
2022-12-06T22:31:50.150Z,2.88
2022-12-06T22:34:54.888Z,2.45
2022-12-06T22:37:59.808Z,2.40
2022-12-06T22:41:05.805Z,2.50
2022-12-06T22:44:11.739Z,2.85
2022-12-06T22:47:16.997Z,2.88
2022-12-06T22:50:21.883Z,2.88
2022-12-06T22:53:26.434Z,2.97
2022-12-06T22:56:35.532Z,2.65
2022-12-06T22:59:40.324Z,3.00
2022-12-06T23:02:45.123Z,2.35
2022-12-06T23:05:59.820Z,2.70
2022-12-06T23:09:06.988Z,2.50
2022-12-06T23:12:11.885Z,2.78
2022-12-06T23:15:16.870Z,2.65
2022-12-06T23:18:22.034Z,2.63
2022-12-06T23:21:32.991Z,2.42
2022-12-06T23:24:37.676Z,2.38
2022-12-06T23:27:42.651Z,2.50
2022-12-06T23:30:47.595Z,2.20
2022-12-06T23:33:58.040Z,2.20
2022-12-06T23:37:03.748Z,2.60
2022-12-06T23:40:09.456Z,2.60
2022-12-06T23:43:14.523Z,2.80
2022-12-06T23:46:23.243Z,2.65
2022-12-06T23:49:28.150Z,2.50
2022-12-06T23:52:32.927Z,2.90
2022-12-06T23:55:37.807Z,2.60
2022-12-06T23:58:44.174Z,2.83
